Holy Cross — WDE7144 — position and weather

sailwx.info

Track history (hours):
 
Tides and Currents Weather Stations Pressure Air Temp Water Temp Dewpoint Dewpoint Depression Visibility Wind Speed Wind Dir Waves Ship Positions

Holy Cross

Owner: Marquette Transportation Company Gulf-Inland, LLC, Jefferson, LA. More information available from US FCC via Universal Licensing System and Coast Guard Vessel Documentation Center.

Last reported at 2018-Jan-20 02:30 UTC. Time now 2018-Jan-20 02:51 UTC.
Position N 29°49' W 092°02'.

Length 185 m; draft 2.7 m.

Type: . MMSI: 367389540.

Date/timePositionNaut miles runAvg speedWind from/ knotsBaromVisibWave heightAir tempDewpointWater temp
2018-Jan-20 02:30N 29°49' W 092°02'2 4.6
2018-Jan-20 02:00N 29°48' W 092°05'2 4.8
2018-Jan-20 01:30N 29°47' W 092°08'2 4.5
2018-Jan-20 01:00N 29°47' W 092°10'2 4.1
2018-Jan-20 00:30N 29°47' W 092°12'0 0.2
2018-Jan-20 00:00N 29°47' W 092°12'0 0.7
2018-Jan-19 23:30N 29°47' W 092°13'1 1.1
2018-Jan-19 22:59N 29°48' W 092°13'0 0.7
2018-Jan-19 22:30N 29°48' W 092°14'0 0.1
2018-Jan-19 22:00N 29°48' W 092°14'0 0.0
2018-Jan-19 21:30N 29°48' W 092°14'1 1.1
2018-Jan-19 21:00N 29°48' W 092°14'2 4.3
2018-Jan-19 20:30N 29°49' W 092°17'32 3.1
2018-Jan-19 10:13N 29°57' W 092°52'1 4.2
2018-Jan-19 09:55N 29°57' W 092°54'4 4.1
2018-Jan-19 08:50N 29°56' W 092°58'1 4.2
2018-Jan-19 08:30N 29°56' W 093°00'2 4.2
2018-Jan-19 07:59N 29°56' W 093°03'2 4.2
2018-Jan-19 07:30N 29°56' W 093°05'2 4.1
2018-Jan-19 07:00N 29°56' W 093°07'2 4.1
2018-Jan-19 06:30N 29°56' W 093°10'2 4.3
2018-Jan-19 06:01N 29°58' W 093°11'2 4.3
2018-Jan-19 05:30N 29°59' W 093°13'2 4.0
2018-Jan-19 05:00N 30°01' W 093°14'1 2.7
2018-Jan-19 04:30N 30°02' W 093°15'2 3.2
2018-Jan-19 04:00N 30°03' W 093°16'2 4.0
2018-Jan-19 03:31N 30°05' W 093°17'1 1.3
2018-Jan-19 03:00N 30°05' W 093°18'1 1.8
2018-Jan-19 02:30N 30°06' W 093°18'0 0.0
2018-Jan-19 02:00N 30°06' W 093°18'0 0.0
2018-Jan-19 01:31N 30°06' W 093°18'0 0.0
2018-Jan-19 01:00N 30°06' W 093°18'0 0.0
2018-Jan-19 00:30N 30°06' W 093°18'0 0.0
2018-Jan-19 00:00N 30°06' W 093°18'0 0.0
2018-Jan-18 23:30N 30°06' W 093°18'0 0.0
2018-Jan-18 23:00N 30°06' W 093°18'0 0.0
2018-Jan-18 22:31N 30°06' W 093°18'2 3.8
2018-Jan-18 22:00N 30°05' W 093°20'2 4.5
2018-Jan-18 21:30N 30°04' W 093°22'2 4.9
2018-Jan-18 21:00N 30°04' W 093°25'2 4.9
2018-Jan-18 20:31N 30°04' W 093°28'2 5.0
2018-Jan-18 20:01N 30°04' W 093°31'2 4.8
2018-Jan-18 19:29N 30°04' W 093°33'2 4.6
2018-Jan-18 18:59N 30°04' W 093°36'  
Track history (hours):
 
Tides and Currents Weather Stations Pressure Air Temp Water Temp Dewpoint Dewpoint Depression Visibility Wind Speed Wind Dir Waves Ship Positions

Holy Cross

Owner: Marquette Transportation Company Gulf-Inland, LLC, Jefferson, LA. More information available from US FCC via Universal Licensing System and Coast Guard Vessel Documentation Center.

Last reported at 2018-Jan-20 02:30 UTC. Time now 2018-Jan-20 02:51 UTC.
Position N 29°49' W 092°02'.

Length 185 m; draft 2.7 m.

Type: . MMSI: 367389540.

Date/timePositionNaut miles runAvg speedWind from/ knotsBaromVisibWave heightAir tempDewpointWater temp
2018-Jan-20 02:30N 29°49' W 092°02'2 4.6
2018-Jan-20 02:00N 29°48' W 092°05'2 4.8
2018-Jan-20 01:30N 29°47' W 092°08'2 4.5
2018-Jan-20 01:00N 29°47' W 092°10'2 4.1
2018-Jan-20 00:30N 29°47' W 092°12'0 0.2
2018-Jan-20 00:00N 29°47' W 092°12'0 0.7
2018-Jan-19 23:30N 29°47' W 092°13'1 1.1
2018-Jan-19 22:59N 29°48' W 092°13'0 0.7
2018-Jan-19 22:30N 29°48' W 092°14'0 0.1
2018-Jan-19 22:00N 29°48' W 092°14'0 0.0
2018-Jan-19 21:30N 29°48' W 092°14'1 1.1
2018-Jan-19 21:00N 29°48' W 092°14'2 4.3
2018-Jan-19 20:30N 29°49' W 092°17'32 3.1
2018-Jan-19 10:13N 29°57' W 092°52'1 4.2
2018-Jan-19 09:55N 29°57' W 092°54'4 4.1
2018-Jan-19 08:50N 29°56' W 092°58'1 4.2
2018-Jan-19 08:30N 29°56' W 093°00'2 4.2
2018-Jan-19 07:59N 29°56' W 093°03'2 4.2
2018-Jan-19 07:30N 29°56' W 093°05'2 4.1
2018-Jan-19 07:00N 29°56' W 093°07'2 4.1
2018-Jan-19 06:30N 29°56' W 093°10'2 4.3
2018-Jan-19 06:01N 29°58' W 093°11'2 4.3
2018-Jan-19 05:30N 29°59' W 093°13'2 4.0
2018-Jan-19 05:00N 30°01' W 093°14'1 2.7
2018-Jan-19 04:30N 30°02' W 093°15'2 3.2
2018-Jan-19 04:00N 30°03' W 093°16'2 4.0
2018-Jan-19 03:31N 30°05' W 093°17'1 1.3
2018-Jan-19 03:00N 30°05' W 093°18'1 1.8
2018-Jan-19 02:30N 30°06' W 093°18'0 0.0
2018-Jan-19 02:00N 30°06' W 093°18'0 0.0
2018-Jan-19 01:31N 30°06' W 093°18'0 0.0
2018-Jan-19 01:00N 30°06' W 093°18'0 0.0
2018-Jan-19 00:30N 30°06' W 093°18'0 0.0
2018-Jan-19 00:00N 30°06' W 093°18'0 0.0
2018-Jan-18 23:30N 30°06' W 093°18'0 0.0
2018-Jan-18 23:00N 30°06' W 093°18'0 0.0
2018-Jan-18 22:31N 30°06' W 093°18'2 3.8
2018-Jan-18 22:00N 30°05' W 093°20'2 4.5
2018-Jan-18 21:30N 30°04' W 093°22'2 4.9
2018-Jan-18 21:00N 30°04' W 093°25'2 4.9
2018-Jan-18 20:31N 30°04' W 093°28'2 5.0
2018-Jan-18 20:01N 30°04' W 093°31'2 4.8
2018-Jan-18 19:29N 30°04' W 093°33'2 4.6
2018-Jan-18 18:59N 30°04' W 093°36'  

Dump ship's entire track history